createdAt,value
2017-07-02T09:36:31.313Z,21.51
2017-07-02T09:37:30.307Z,21.52
2017-07-02T09:38:29.998Z,21.54
2017-07-02T09:39:30.305Z,21.55
2017-07-02T09:40:30.306Z,21.55
2017-07-02T09:41:30.798Z,21.5
2017-07-02T09:42:30.310Z,21.45
2017-07-02T09:43:30.317Z,21.29
2017-07-02T09:44:30.325Z,21.25
2017-07-02T09:45:30.027Z,21.21
2017-07-02T09:46:30.037Z,21.11
2017-07-02T09:47:30.329Z,21.2
2017-07-02T09:48:30.328Z,21.17
2017-07-02T09:49:30.330Z,21.11
2017-07-02T09:50:30.340Z,21.11
2017-07-02T09:51:30.082Z,21.09
2017-07-02T09:52:30.344Z,21.07
2017-07-02T09:53:30.043Z,21.14
2017-07-02T09:54:30.359Z,21.18
2017-07-02T09:55:30.059Z,21.17
2017-07-02T09:56:30.055Z,21.11
2017-07-02T09:57:30.377Z,21.15
2017-07-02T09:58:30.052Z,21.05
2017-07-02T09:59:30.372Z,20.97
2017-07-02T10:00:30.398Z,21.02
2017-07-02T10:01:30.383Z,21.03
2017-07-02T10:02:30.723Z,21.05
2017-07-02T10:03:30.425Z,21.14
2017-07-02T10:04:30.406Z,21.17
2017-07-02T10:05:30.427Z,21.15
2017-07-02T10:06:30.089Z,21.09
2017-07-02T10:07:30.124Z,21.15
2017-07-02T10:08:30.413Z,21.14
2017-07-02T10:09:30.425Z,21.06
2017-07-02T10:10:30.427Z,21.11
2017-07-02T10:11:30.425Z,21.2
2017-07-02T10:12:30.430Z,21.29
2017-07-02T10:13:30.438Z,21.37
2017-07-02T10:14:30.436Z,21.4
2017-07-02T10:15:30.444Z,21.33
2017-07-02T10:16:30.133Z,21.46
2017-07-02T10:17:30.453Z,21.37
2017-07-02T10:18:30.466Z,21.39
2017-07-02T10:19:30.465Z,21.36
2017-07-02T10:20:30.467Z,21.32
2017-07-02T10:21:30.467Z,21.27
2017-07-02T10:22:32.117Z,21.35
2017-07-02T10:23:30.937Z,21.35
2017-07-02T10:24:30.487Z,21.36
2017-07-02T10:25:30.182Z,21.46
2017-07-02T10:26:30.493Z,21.51
2017-07-02T10:27:30.496Z,21.58
2017-07-02T10:28:30.504Z,21.64
2017-07-02T10:29:30.192Z,21.61
2017-07-02T10:30:30.511Z,21.66
2017-07-02T10:31:29.896Z,21.77
2017-07-02T10:32:30.213Z,21.95
2017-07-02T10:33:30.213Z,22.02
2017-07-02T10:34:30.533Z,22.18
2017-07-02T10:35:30.224Z,22.26
2017-07-02T10:36:30.233Z,22.35
2017-07-02T10:37:33.132Z,22.39
2017-07-02T10:38:30.239Z,22.53
2017-07-02T10:39:30.245Z,22.59
2017-07-02T10:40:30.560Z,22.63
2017-07-02T10:41:30.568Z,22.69
2017-07-02T10:42:30.569Z,22.75
2017-07-02T10:43:30.262Z,22.84
2017-07-02T10:44:30.584Z,22.88
2017-07-02T10:45:30.306Z,22.68
2017-07-02T10:46:30.598Z,22.53
2017-07-02T10:47:30.602Z,22.6
2017-07-02T10:48:30.611Z,22.7
2017-07-02T10:49:30.609Z,22.73
2017-07-02T10:50:30.609Z,22.76
2017-07-02T10:51:30.308Z,22.84
2017-07-02T10:52:30.366Z,22.96
2017-07-02T10:53:30.634Z,23.08
2017-07-02T10:54:30.322Z,23.23
2017-07-02T10:55:30.639Z,23.46
2017-07-02T10:56:30.330Z,23.61
2017-07-02T10:57:30.666Z,23.68
2017-07-02T10:58:30.665Z,23.71
2017-07-02T10:59:30.354Z,23.73
2017-07-02T11:00:30.673Z,23.68
2017-07-02T11:01:30.376Z,23.78
2017-07-02T11:02:30.685Z,23.88
2017-07-02T11:03:30.689Z,23.84
2017-07-02T11:04:30.748Z,23.95
2017-07-02T11:05:30.383Z,23.98
2017-07-02T11:06:30.703Z,23.71
2017-07-02T11:07:34.211Z,23.56
2017-07-02T11:08:30.718Z,23.41
2017-07-02T11:09:30.735Z,23.21
2017-07-02T11:10:30.746Z,23.2
2017-07-02T11:11:30.454Z,23.34
2017-07-02T11:12:30.807Z,23.43
2017-07-02T11:13:30.770Z,23.51
2017-07-02T11:14:31.643Z,23.62
2017-07-02T11:15:30.754Z,23.71
2017-07-02T11:16:30.786Z,23.78
2017-07-02T11:17:30.769Z,23.76
2017-07-02T11:18:30.775Z,23.59
2017-07-02T11:19:30.790Z,23.46
2017-07-02T11:20:30.470Z,23.28
2017-07-02T11:21:30.798Z,23.13
2017-07-02T11:22:30.832Z,23.12
2017-07-02T11:23:30.552Z,22.99
2017-07-02T11:24:30.209Z,22.99
2017-07-02T11:25:30.839Z,22.91
2017-07-02T11:26:30.871Z,22.7
2017-07-02T11:27:30.945Z,22.66
2017-07-02T11:28:30.910Z,22.63
2017-07-02T11:29:30.826Z,22.68
2017-07-02T11:30:30.879Z,22.57
2017-07-02T11:31:30.844Z,22.6
2017-07-02T11:32:30.541Z,22.66
2017-07-02T11:33:30.967Z,22.8
2017-07-02T11:34:30.875Z,22.8
2017-07-02T11:35:30.881Z,22.66
2017-07-02T11:36:30.879Z,22.47
2017-07-02T11:37:30.909Z,22.29
2017-07-02T11:38:32.233Z,22.32
2017-07-02T11:39:30.581Z,22.29
2017-07-02T11:40:30.902Z,22.33
2017-07-02T11:41:30.904Z,22.41
2017-07-02T11:42:30.897Z,22.35
2017-07-02T11:43:30.916Z,22.33
2017-07-02T11:44:30.611Z,22.29
2017-07-02T11:45:30.605Z,22.22
2017-07-02T11:46:30.916Z,22.17
2017-07-02T11:47:30.928Z,22.13
2017-07-02T11:48:30.943Z,22.15
2017-07-02T11:49:30.963Z,22.22
2017-07-02T11:50:30.681Z,22.26
2017-07-02T11:51:30.944Z,22.26
2017-07-02T11:52:30.952Z,22.17
2017-07-02T11:53:30.746Z,22.11
2017-07-02T11:54:30.954Z,22.06
2017-07-02T11:55:56.357Z,21.96
2017-07-02T11:56:30.968Z,22.04
2017-07-02T11:57:31.019Z,21.98
2017-07-02T11:58:31.042Z,21.99
2017-07-02T11:59:31.010Z,22.02
2017-07-02T12:00:30.662Z,21.98
2017-07-02T12:01:31.019Z,21.96
2017-07-02T12:02:30.708Z,21.98
2017-07-02T12:03:30.405Z,22.15
2017-07-02T12:04:30.697Z,22.23
2017-07-02T12:05:31.016Z,22.28
2017-07-02T12:06:31.047Z,22.32
2017-07-02T12:07:31.012Z,22.44
2017-07-02T12:08:33.366Z,22.5
2017-07-02T12:09:31.017Z,22.66
2017-07-02T12:10:31.070Z,22.73
2017-07-02T12:11:31.102Z,22.81
2017-07-02T12:12:31.133Z,22.99
2017-07-02T12:13:31.056Z,23.12
2017-07-02T12:14:31.081Z,23.12
2017-07-02T12:15:31.057Z,23.13
2017-07-02T12:16:31.072Z,23.2
2017-07-02T12:17:30.751Z,23.28
2017-07-02T12:18:30.806Z,23.2
2017-07-02T12:19:31.075Z,23.36
2017-07-02T12:20:31.106Z,23.37
2017-07-02T12:21:31.076Z,23.46
2017-07-02T12:22:31.095Z,23.58
2017-07-02T12:23:31.463Z,23.54
2017-07-02T12:24:31.101Z,23.62
2017-07-02T12:25:31.139Z,23.69
2017-07-02T12:26:31.126Z,23.73
2017-07-02T12:27:30.800Z,23.69
2017-07-02T12:28:30.806Z,23.77
2017-07-02T12:29:30.805Z,23.91
2017-07-02T12:30:31.150Z,24.02
2017-07-02T12:31:31.136Z,24.23
2017-07-02T12:32:30.826Z,24.32
2017-07-02T12:33:31.152Z,24.42
2017-07-02T12:34:31.169Z,24.47
2017-07-02T12:35:31.152Z,24.53
2017-07-02T12:36:31.156Z,24.47
2017-07-02T12:37:31.160Z,24.51
2017-07-02T12:38:31.174Z,24.57
2017-07-02T12:39:31.188Z,24.54
2017-07-02T12:40:31.183Z,24.65
2017-07-02T12:41:31.187Z,24.77
2017-07-02T12:42:31.221Z,24.84
2017-07-02T12:43:30.880Z,24.66
2017-07-02T12:44:31.224Z,24.7
2017-07-02T12:45:31.219Z,24.73
2017-07-02T12:46:31.217Z,24.8
2017-07-02T12:47:30.915Z,24.68
2017-07-02T12:48:31.232Z,24.55
2017-07-02T12:49:30.959Z,24.3
2017-07-02T12:50:31.253Z,24.13
2017-07-02T12:51:30.945Z,23.99
2017-07-02T12:52:31.246Z,23.98
2017-07-02T12:53:31.251Z,23.91
2017-07-02T12:54:31.270Z,23.86
2017-07-02T12:55:31.274Z,23.93
2017-07-02T12:56:31.287Z,23.84
2017-07-02T12:57:31.282Z,23.68
2017-07-02T12:58:31.283Z,23.47
2017-07-02T12:59:31.297Z,23.37
2017-07-02T13:00:31.291Z,23.37
2017-07-02T13:01:31.299Z,23.41
2017-07-02T13:02:31.308Z,23.46
2017-07-02T13:03:31.352Z,23.46
2017-07-02T13:04:30.685Z,23.59
2017-07-02T13:05:31.013Z,23.56
2017-07-02T13:06:31.344Z,23.5
2017-07-02T13:07:31.341Z,23.48
2017-07-02T13:08:31.339Z,23.46
2017-07-02T13:09:33.147Z,23.31
2017-07-02T13:10:31.348Z,23.34
2017-07-02T13:11:31.043Z,23.36
2017-07-02T13:12:31.355Z,23.27
2017-07-02T13:13:31.359Z,23.28
2017-07-02T13:14:31.365Z,23.31
2017-07-02T13:15:31.800Z,23.23
2017-07-02T13:16:31.070Z,23.28
2017-07-02T13:17:31.399Z,23.36
2017-07-02T13:18:31.411Z,23.36
2017-07-02T13:19:31.097Z,23.44
2017-07-02T13:20:31.402Z,23.41
2017-07-02T13:21:31.421Z,23.44
2017-07-02T13:22:31.405Z,23.4
2017-07-02T13:23:31.411Z,23.41
2017-07-02T13:24:31.512Z,23.36
2017-07-02T13:25:31.421Z,23.28
2017-07-02T13:26:31.425Z,23.1
2017-07-02T13:27:31.134Z,22.91
2017-07-02T13:28:31.434Z,22.76
2017-07-02T13:29:31.440Z,22.66
2017-07-02T13:30:31.448Z,22.55
2017-07-02T13:31:31.465Z,22.59
2017-07-02T13:32:31.452Z,22.55
2017-07-02T13:33:31.509Z,22.5
2017-07-02T13:34:31.482Z,22.53
2017-07-02T13:35:31.470Z,22.45
2017-07-02T13:36:31.543Z,22.41
2017-07-02T13:37:31.482Z,22.35
2017-07-02T13:38:31.532Z,22.26
2017-07-02T13:39:32.554Z,22.15
2017-07-02T13:40:31.512Z,22.25
2017-07-02T13:41:31.499Z,22.2
2017-07-02T13:42:31.391Z,22.22
2017-07-02T13:43:31.193Z,22.13
2017-07-02T13:44:31.508Z,22.08
2017-07-02T13:45:31.242Z,22.11
2017-07-02T13:46:31.513Z,22
2017-07-02T13:47:31.528Z,22.04
2017-07-02T13:48:31.204Z,21.93
2017-07-02T13:49:31.591Z,21.93
2017-07-02T13:50:31.862Z,21.91
2017-07-02T13:51:31.544Z,21.89
2017-07-02T13:52:31.552Z,21.85
2017-07-02T13:53:31.240Z,21.92
2017-07-02T13:54:31.744Z,21.83
2017-07-02T13:55:31.818Z,21.8
2017-07-02T13:56:31.662Z,21.89
2017-07-02T13:57:31.264Z,21.95
2017-07-02T13:58:31.568Z,21.89
2017-07-02T13:59:31.654Z,21.92
2017-07-02T14:00:31.387Z,21.89
2017-07-02T14:01:31.653Z,21.92
2017-07-02T14:02:31.430Z,21.93
2017-07-02T14:03:31.701Z,21.83
2017-07-02T14:04:31.440Z,21.82
2017-07-02T14:05:31.727Z,21.72
2017-07-02T14:06:31.638Z,21.69
2017-07-02T14:07:31.727Z,21.58
2017-07-02T14:08:31.741Z,21.6
2017-07-02T14:09:36.096Z,21.61
2017-07-02T14:10:31.758Z,21.58
2017-07-02T14:11:31.753Z,21.61
2017-07-02T14:12:31.684Z,21.6
2017-07-02T14:13:31.705Z,21.58
2017-07-02T14:14:31.360Z,21.62
2017-07-02T14:15:31.692Z,21.54
2017-07-02T14:16:32.069Z,21.61
2017-07-02T14:17:31.713Z,21.64
2017-07-02T14:18:31.415Z,21.57
2017-07-02T14:19:31.746Z,21.69
2017-07-02T14:20:33.331Z,21.62
2017-07-02T14:21:31.747Z,21.69
2017-07-02T14:22:31.564Z,21.72
2017-07-02T14:23:31.466Z,21.77
2017-07-02T14:24:31.808Z,21.83
2017-07-02T14:25:31.979Z,21.96
2017-07-02T14:26:31.452Z,21.89
2017-07-02T14:27:31.695Z,21.92
2017-07-02T14:28:31.687Z,22.04
2017-07-02T14:29:31.687Z,22
2017-07-02T14:30:31.396Z,22.14
2017-07-02T14:31:31.689Z,22.18
2017-07-02T14:32:31.393Z,22.25
2017-07-02T14:33:31.699Z,22.22
2017-07-02T14:34:31.724Z,22.25
2017-07-02T14:35:31.715Z,22.29
2017-07-02T14:36:31.714Z,22.26
2017-07-02T14:37:31.724Z,22.23
2017-07-02T14:38:31.487Z,22.11
2017-07-02T14:39:31.414Z,22.1
2017-07-02T14:40:32.040Z,22.1
2017-07-02T14:41:31.433Z,22.02
2017-07-02T14:42:31.567Z,22
2017-07-02T14:43:31.755Z,21.91
2017-07-02T14:44:31.772Z,21.92
2017-07-02T14:45:31.870Z,21.76
2017-07-02T14:46:31.540Z,21.75
2017-07-02T14:47:31.465Z,21.75
2017-07-02T14:48:31.448Z,21.72
2017-07-02T14:49:31.784Z,21.73
2017-07-02T14:50:32.497Z,21.72
2017-07-02T14:51:31.461Z,21.7
2017-07-02T14:52:31.776Z,21.66
2017-07-02T14:53:31.830Z,21.67
2017-07-02T14:54:31.785Z,21.72
2017-07-02T14:55:31.566Z,21.66
2017-07-02T14:56:31.498Z,21.66
2017-07-02T14:57:31.811Z,21.62
2017-07-02T14:58:31.491Z,21.61
2017-07-02T14:59:31.180Z,21.58
2017-07-02T15:00:31.504Z,21.46
2017-07-02T15:01:31.816Z,21.5
2017-07-02T15:02:31.815Z,21.45
2017-07-02T15:03:31.821Z,21.51
2017-07-02T15:04:31.832Z,21.6
2017-07-02T15:05:31.511Z,21.6
2017-07-02T15:06:31.832Z,21.52
2017-07-02T15:07:31.523Z,21.61
2017-07-02T15:08:31.522Z,21.57
2017-07-02T15:09:31.842Z,21.55
2017-07-02T15:10:31.530Z,21.67
2017-07-02T15:11:33.203Z,21.6
2017-07-02T15:12:31.576Z,21.66
2017-07-02T15:13:31.546Z,21.64
2017-07-02T15:14:31.549Z,21.62
2017-07-02T15:15:31.935Z,21.57
2017-07-02T15:16:31.553Z,21.5
2017-07-02T15:17:31.563Z,21.43
2017-07-02T15:18:31.567Z,21.4
2017-07-02T15:19:31.581Z,21.3
2017-07-02T15:20:31.578Z,21.24
2017-07-02T15:21:31.896Z,21.21
2017-07-02T15:22:31.900Z,21.24
2017-07-02T15:23:31.904Z,21.24
2017-07-02T15:24:31.906Z,21.24
2017-07-02T15:25:31.907Z,21.21
2017-07-02T15:26:31.967Z,21.27
2017-07-02T15:27:31.940Z,21.29
2017-07-02T15:28:31.917Z,21.27
2017-07-02T15:29:31.927Z,21.24
2017-07-02T15:30:31.931Z,21.3
2017-07-02T15:31:31.638Z,21.21
2017-07-02T15:32:31.635Z,21.11
2017-07-02T15:33:32.029Z,21.09
2017-07-02T15:34:31.957Z,21.03
2017-07-02T15:35:31.940Z,21.02
2017-07-02T15:36:31.951Z,21
2017-07-02T15:37:31.949Z,20.99
2017-07-02T15:38:31.955Z,20.9
2017-07-02T15:39:31.959Z,20.88
2017-07-02T15:40:31.914Z,20.84
2017-07-02T15:41:34.763Z,20.75
2017-07-02T15:42:31.971Z,20.84
2017-07-02T15:43:31.682Z,20.81
2017-07-02T15:44:31.714Z,20.82
2017-07-02T15:45:31.983Z,20.88
2017-07-02T15:46:31.997Z,20.9
2017-07-02T15:47:32.003Z,20.85
2017-07-02T15:48:32.048Z,20.87
2017-07-02T15:49:32.007Z,20.82
2017-07-02T15:50:31.987Z,20.78
2017-07-02T15:51:31.996Z,20.81
2017-07-02T15:52:31.729Z,20.84
2017-07-02T15:53:31.726Z,20.9
2017-07-02T15:54:32.070Z,20.84
2017-07-02T15:55:32.036Z,20.88
2017-07-02T15:56:31.699Z,20.97
2017-07-02T15:57:32.026Z,21.06
2017-07-02T15:58:31.712Z,21.06
2017-07-02T15:59:31.713Z,21.06
2017-07-02T16:00:32.027Z,21.02
2017-07-02T16:01:31.718Z,20.95
2017-07-02T16:02:32.056Z,20.87
2017-07-02T16:03:32.044Z,20.9
2017-07-02T16:04:31.751Z,20.85
2017-07-02T16:05:32.052Z,20.92
2017-07-02T16:06:32.100Z,20.93
2017-07-02T16:07:32.118Z,20.87
2017-07-02T16:08:32.078Z,20.9
2017-07-02T16:09:32.066Z,20.84
2017-07-02T16:10:32.064Z,20.85
2017-07-02T16:11:31.767Z,20.7
2017-07-02T16:12:32.085Z,20.74
2017-07-02T16:13:32.075Z,20.74
2017-07-02T16:14:32.077Z,20.78
2017-07-02T16:15:32.082Z,20.72
2017-07-02T16:16:31.768Z,20.7
2017-07-02T16:17:32.112Z,20.82
2017-07-02T16:18:31.774Z,20.88
2017-07-02T16:19:32.096Z,21.02
2017-07-02T16:20:31.801Z,20.88
2017-07-02T16:21:31.788Z,20.85
2017-07-02T16:22:32.109Z,20.9
2017-07-02T16:23:32.119Z,20.9
2017-07-02T16:24:31.812Z,20.88
2017-07-02T16:25:31.804Z,21
2017-07-02T16:26:31.817Z,20.97
2017-07-02T16:27:32.121Z,21
2017-07-02T16:28:32.127Z,21.07
2017-07-02T16:29:32.125Z,21.18
2017-07-02T16:30:32.540Z,21.18
2017-07-02T16:31:31.848Z,21.24
2017-07-02T16:32:31.867Z,21.29
2017-07-02T16:33:32.149Z,21.21
2017-07-02T16:34:32.209Z,21.2
2017-07-02T16:35:31.543Z,21.11
2017-07-02T16:36:31.848Z,21.12
2017-07-02T16:37:32.159Z,21.14
2017-07-02T16:38:32.184Z,21.11
2017-07-02T16:39:32.170Z,21.09
2017-07-02T16:40:31.885Z,21.17
2017-07-02T16:41:31.859Z,21.15
2017-07-02T16:42:32.443Z,21.21
2017-07-02T16:43:32.174Z,21.22
2017-07-02T16:44:32.186Z,21.21
2017-07-02T16:45:32.182Z,21.29
2017-07-02T16:46:32.184Z,21.33
2017-07-02T16:47:32.190Z,21.27
2017-07-02T16:48:32.220Z,21.14
2017-07-02T16:49:31.883Z,21.07
2017-07-02T16:50:32.201Z,21.02
2017-07-02T16:51:31.899Z,21
2017-07-02T16:52:32.215Z,21.09
2017-07-02T16:53:32.209Z,21.14
2017-07-02T16:54:32.228Z,21.17
2017-07-02T16:55:32.227Z,21.15
2017-07-02T16:56:32.246Z,21.15
2017-07-02T16:57:34.082Z,21.15
2017-07-02T16:58:31.605Z,21.09
2017-07-02T16:59:31.924Z,21.12
2017-07-02T17:00:32.233Z,21.11
2017-07-02T17:01:31.924Z,21.12
2017-07-02T17:02:32.251Z,21.12
2017-07-02T17:03:32.247Z,21.14
2017-07-02T17:04:32.272Z,21.06
2017-07-02T17:05:32.262Z,21.03
2017-07-02T17:06:32.255Z,21.06
2017-07-02T17:07:32.492Z,20.99
2017-07-02T17:08:32.269Z,20.99
2017-07-02T17:09:32.151Z,20.96
2017-07-02T17:10:32.277Z,20.92
2017-07-02T17:11:31.988Z,20.93
2017-07-02T17:12:33.433Z,20.9
2017-07-02T17:13:32.287Z,20.9
2017-07-02T17:14:32.323Z,20.82
2017-07-02T17:15:31.986Z,20.81
2017-07-02T17:16:31.976Z,20.84
2017-07-02T17:17:31.996Z,20.82
2017-07-02T17:18:32.302Z,20.82
2017-07-02T17:19:32.307Z,20.77
2017-07-02T17:20:31.991Z,20.82
2017-07-02T17:21:32.308Z,20.66
2017-07-02T17:22:32.314Z,20.74
2017-07-02T17:23:32.581Z,20.67
2017-07-02T17:24:32.337Z,20.69
2017-07-02T17:25:32.328Z,20.69
2017-07-02T17:26:33.273Z,20.67
2017-07-02T17:27:34.372Z,20.72
2017-07-02T17:28:32.026Z,20.69
2017-07-02T17:29:32.627Z,20.65
2017-07-02T17:30:32.033Z,20.65
2017-07-02T17:31:32.349Z,20.66
2017-07-02T17:32:32.357Z,20.65
2017-07-02T17:33:32.381Z,20.63
2017-07-02T17:34:32.062Z,20.55
2017-07-02T17:35:32.380Z,20.52
2017-07-02T17:36:32.378Z,20.55
2017-07-02T17:37:32.397Z,20.51
2017-07-02T17:38:32.062Z,20.56
2017-07-02T17:39:32.375Z,20.5
2017-07-02T17:40:32.383Z,20.58
2017-07-02T17:41:32.385Z,20.47
2017-07-02T17:42:32.381Z,20.56
2017-07-02T17:43:32.386Z,20.41
2017-07-02T17:44:32.403Z,20.47
2017-07-02T17:45:32.386Z,20.43
2017-07-02T17:46:32.395Z,20.48
2017-07-02T17:47:31.818Z,20.47
2017-07-02T17:48:32.407Z,20.56
2017-07-02T17:49:32.408Z,20.55
2017-07-02T17:50:32.093Z,20.65
2017-07-02T17:51:32.429Z,20.56
2017-07-02T17:52:32.410Z,20.6
2017-07-02T17:53:32.415Z,20.55
2017-07-02T17:54:31.800Z,20.59
2017-07-02T17:55:32.440Z,20.43
2017-07-02T17:56:32.505Z,20.4
2017-07-02T17:57:32.120Z,20.37
2017-07-02T17:58:32.485Z,20.34
2017-07-02T17:59:32.453Z,20.39
2017-07-02T18:00:32.120Z,20.31
2017-07-02T18:01:32.128Z,20.22
2017-07-02T18:02:32.452Z,20.29
2017-07-02T18:03:32.451Z,20.29
2017-07-02T18:04:32.138Z,20.26
2017-07-02T18:05:32.453Z,20.26
2017-07-02T18:06:32.477Z,20.32
2017-07-02T18:07:32.479Z,20.26
2017-07-02T18:08:32.179Z,20.32
2017-07-02T18:09:32.494Z,20.28
2017-07-02T18:10:32.499Z,20.36
2017-07-02T18:11:32.492Z,20.18
2017-07-02T18:12:32.165Z,20.31
2017-07-02T18:13:32.513Z,20.24
2017-07-02T18:14:32.493Z,20.28
2017-07-02T18:15:32.286Z,20.26
2017-07-02T18:16:32.506Z,20.25
2017-07-02T18:17:32.505Z,20.21
2017-07-02T18:18:32.509Z,20.21
2017-07-02T18:19:32.511Z,20.28
2017-07-02T18:20:32.193Z,20.31
2017-07-02T18:21:32.518Z,20.21
2017-07-02T18:22:32.505Z,20.25
2017-07-02T18:23:32.194Z,20.21
2017-07-02T18:24:32.630Z,20.13
2017-07-02T18:25:32.527Z,20.18
2017-07-02T18:26:32.247Z,20.02
2017-07-02T18:27:32.203Z,20.02
2017-07-02T18:28:33.407Z,19.94
2017-07-02T18:29:32.214Z,20.07
2017-07-02T18:30:32.548Z,19.99
2017-07-02T18:31:32.527Z,19.95
2017-07-02T18:32:32.215Z,19.94
2017-07-02T18:33:32.548Z,19.92
2017-07-02T18:34:32.227Z,19.77
2017-07-02T18:35:32.557Z,19.85
2017-07-02T18:36:32.546Z,19.82
2017-07-02T18:37:32.564Z,19.85
2017-07-02T18:38:32.601Z,19.84
2017-07-02T18:39:32.239Z,19.79
2017-07-02T18:40:32.582Z,19.74
2017-07-02T18:41:32.600Z,19.71
2017-07-02T18:42:32.630Z,19.74
2017-07-02T18:43:37.633Z,19.71
2017-07-02T18:44:32.598Z,19.69
2017-07-02T18:45:32.565Z,19.71
2017-07-02T18:46:32.581Z,19.67
2017-07-02T18:47:32.595Z,19.59
2017-07-02T18:48:32.585Z,19.69
2017-07-02T18:49:32.598Z,19.69
2017-07-02T18:50:33.060Z,19.62
2017-07-02T18:51:32.585Z,19.63
2017-07-02T18:52:32.276Z,19.55
2017-07-02T18:53:32.271Z,19.59
2017-07-02T18:54:32.603Z,19.55
2017-07-02T18:55:32.589Z,19.49
2017-07-02T18:56:32.593Z,19.54
2017-07-02T18:57:32.593Z,19.49
2017-07-02T18:58:32.309Z,19.47
2017-07-02T18:59:32.297Z,19.48
2017-07-02T19:00:32.625Z,19.47
2017-07-02T19:01:32.292Z,19.44
2017-07-02T19:02:32.297Z,19.36
2017-07-02T19:03:32.301Z,19.3
2017-07-02T19:04:32.611Z,19.34
2017-07-02T19:05:32.322Z,19.34
2017-07-02T19:06:32.649Z,19.39
2017-07-02T19:07:32.751Z,19.39
2017-07-02T19:08:32.623Z,19.29
2017-07-02T19:09:32.777Z,19.22
2017-07-02T19:10:32.349Z,19.29
2017-07-02T19:11:32.715Z,19.14
2017-07-02T19:12:32.363Z,19.07
2017-07-02T19:13:32.647Z,18.93
2017-07-02T19:14:32.658Z,18.84
2017-07-02T19:15:32.709Z,18.86
2017-07-02T19:16:32.405Z,18.77
2017-07-02T19:17:32.728Z,18.74
2017-07-02T19:18:32.333Z,18.81
2017-07-02T19:19:32.377Z,18.7
2017-07-02T19:20:32.662Z,18.73
2017-07-02T19:21:32.425Z,18.7
2017-07-02T19:22:32.422Z,18.7
2017-07-02T19:23:32.383Z,18.74
2017-07-02T19:24:32.368Z,18.75
2017-07-02T19:25:32.357Z,18.7
2017-07-02T19:26:32.387Z,18.78
2017-07-02T19:27:32.756Z,18.66
2017-07-02T19:28:32.377Z,18.73
2017-07-02T19:29:32.675Z,18.68
2017-07-02T19:30:32.685Z,18.63
2017-07-02T19:31:32.697Z,18.62
2017-07-02T19:32:32.684Z,18.65
2017-07-02T19:33:32.684Z,18.53
2017-07-02T19:34:32.374Z,18.55
2017-07-02T19:35:32.377Z,18.41
2017-07-02T19:36:32.378Z,18.47
2017-07-02T19:37:32.741Z,18.38
2017-07-02T19:38:32.387Z,18.29
2017-07-02T19:39:32.071Z,18.33
2017-07-02T19:40:32.700Z,18.29
2017-07-02T19:41:32.385Z,18.23
2017-07-02T19:42:32.712Z,18.19
2017-07-02T19:43:32.754Z,18.19
2017-07-02T19:44:33.607Z,18.08
2017-07-02T19:45:32.722Z,18.04
2017-07-02T19:46:32.753Z,17.98
2017-07-02T19:47:32.396Z,17.89
2017-07-02T19:48:32.772Z,17.74
2017-07-02T19:49:32.534Z,17.85
2017-07-02T19:50:32.433Z,17.76
2017-07-02T19:51:32.720Z,17.76
2017-07-02T19:52:32.796Z,17.76
2017-07-02T19:53:32.778Z,17.68
2017-07-02T19:54:32.424Z,17.59
2017-07-02T19:55:32.731Z,17.59
2017-07-02T19:56:32.724Z,17.52
2017-07-02T19:57:32.725Z,17.36
2017-07-02T19:58:32.736Z,17.42
2017-07-02T19:59:33.291Z,17.36
2017-07-02T20:00:32.742Z,17.41
